sensor_id;sensor_type;location;lat;lon;timestamp;P1;durP1;ratioP1;P2;durP2;ratioP2
11481;SDS011;5797;51.662;6.748;2022-12-18T00:01:14;70.00;;;26.00;;
11481;SDS011;5797;51.662;6.748;2022-12-18T00:03:44;59.57;;;24.50;;
11481;SDS011;5797;51.662;6.748;2022-12-18T00:06:13;50.93;;;23.30;;
11481;SDS011;5797;51.662;6.748;2022-12-18T00:08:42;69.93;;;25.37;;
11481;SDS011;5797;51.662;6.748;2022-12-18T00:11:12;58.03;;;25.50;;
11481;SDS011;5797;51.662;6.748;2022-12-18T00:13:44;59.03;;;25.07;;
11481;SDS011;5797;51.662;6.748;2022-12-18T00:16:13;60.40;;;26.27;;
11481;SDS011;5797;51.662;6.748;2022-12-18T00:18:43;65.57;;;26.47;;
11481;SDS011;5797;51.662;6.748;2022-12-18T00:21:12;64.63;;;25.10;;
11481;SDS011;5797;51.662;6.748;2022-12-18T00:23:41;63.87;;;26.70;;
11481;SDS011;5797;51.662;6.748;2022-12-18T00:26:11;61.17;;;26.07;;
11481;SDS011;5797;51.662;6.748;2022-12-18T00:28:40;60.20;;;26.00;;
11481;SDS011;5797;51.662;6.748;2022-12-18T00:31:11;57.27;;;24.10;;
11481;SDS011;5797;51.662;6.748;2022-12-18T00:33:40;63.33;;;25.33;;
11481;SDS011;5797;51.662;6.748;2022-12-18T00:36:10;60.53;;;26.30;;
11481;SDS011;5797;51.662;6.748;2022-12-18T00:38:39;60.50;;;24.00;;
11481;SDS011;5797;51.662;6.748;2022-12-18T00:41:09;49.87;;;24.17;;
11481;SDS011;5797;51.662;6.748;2022-12-18T00:43:38;61.33;;;25.13;;
11481;SDS011;5797;51.662;6.748;2022-12-18T00:46:07;60.47;;;25.27;;
11481;SDS011;5797;51.662;6.748;2022-12-18T00:48:36;57.13;;;24.67;;
11481;SDS011;5797;51.662;6.748;2022-12-18T00:51:05;54.90;;;24.10;;
11481;SDS011;5797;51.662;6.748;2022-12-18T00:53:35;62.97;;;25.53;;
11481;SDS011;5797;51.662;6.748;2022-12-18T00:56:04;55.60;;;25.50;;
11481;SDS011;5797;51.662;6.748;2022-12-18T00:58:36;62.37;;;25.63;;
11481;SDS011;5797;51.662;6.748;2022-12-18T01:01:05;65.40;;;27.00;;
11481;SDS011;5797;51.662;6.748;2022-12-18T01:03:34;66.57;;;26.90;;
11481;SDS011;5797;51.662;6.748;2022-12-18T01:06:06;57.27;;;24.83;;
11481;SDS011;5797;51.662;6.748;2022-12-18T01:08:35;65.97;;;26.13;;
11481;SDS011;5797;51.662;6.748;2022-12-18T01:11:06;64.33;;;25.50;;
11481;SDS011;5797;51.662;6.748;2022-12-18T01:13:35;63.57;;;25.60;;
11481;SDS011;5797;51.662;6.748;2022-12-18T01:16:04;63.60;;;26.27;;
11481;SDS011;5797;51.662;6.748;2022-12-18T01:18:34;65.23;;;26.13;;
11481;SDS011;5797;51.662;6.748;2022-12-18T01:21:06;65.57;;;26.47;;
11481;SDS011;5797;51.662;6.748;2022-12-18T01:23:36;66.17;;;26.30;;
11481;SDS011;5797;51.662;6.748;2022-12-18T01:26:05;57.37;;;25.17;;
11481;SDS011;5797;51.662;6.748;2022-12-18T01:28:35;61.23;;;26.03;;
11481;SDS011;5797;51.662;6.748;2022-12-18T01:31:14;64.83;;;26.27;;
11481;SDS011;5797;51.662;6.748;2022-12-18T01:33:46;65.03;;;26.27;;
11481;SDS011;5797;51.662;6.748;2022-12-18T01:36:16;67.47;;;25.83;;
11481;SDS011;5797;51.662;6.748;2022-12-18T01:38:46;67.67;;;26.23;;
11481;SDS011;5797;51.662;6.748;2022-12-18T01:41:16;62.70;;;26.43;;
11481;SDS011;5797;51.662;6.748;2022-12-18T01:43:49;58.50;;;24.20;;
11481;SDS011;5797;51.662;6.748;2022-12-18T01:46:21;55.67;;;24.67;;
11481;SDS011;5797;51.662;6.748;2022-12-18T01:48:51;70.43;;;28.23;;
11481;SDS011;5797;51.662;6.748;2022-12-18T01:51:23;63.87;;;25.77;;
11481;SDS011;5797;51.662;6.748;2022-12-18T01:53:51;68.93;;;24.60;;
11481;SDS011;5797;51.662;6.748;2022-12-18T01:56:20;58.20;;;25.87;;
11481;SDS011;5797;51.662;6.748;2022-12-18T01:58:51;65.13;;;26.03;;
11481;SDS011;5797;51.662;6.748;2022-12-18T02:01:22;70.70;;;25.10;;
11481;SDS011;5797;51.662;6.748;2022-12-18T02:03:51;60.60;;;25.53;;
11481;SDS011;5797;51.662;6.748;2022-12-18T02:06:23;56.60;;;24.53;;
11481;SDS011;5797;51.662;6.748;2022-12-18T02:08:58;61.93;;;27.20;;
11481;SDS011;5797;51.662;6.748;2022-12-18T02:11:35;74.23;;;27.43;;
11481;SDS011;5797;51.662;6.748;2022-12-18T02:14:11;55.63;;;25.57;;
11481;SDS011;5797;51.662;6.748;2022-12-18T02:16:49;66.77;;;26.47;;
11481;SDS011;5797;51.662;6.748;2022-12-18T02:19:32;60.73;;;26.73;;
11481;SDS011;5797;51.662;6.748;2022-12-18T02:22:13;68.97;;;25.93;;
11481;SDS011;5797;51.662;6.748;2022-12-18T02:24:51;63.70;;;24.80;;
11481;SDS011;5797;51.662;6.748;2022-12-18T02:27:29;65.60;;;25.07;;
11481;SDS011;5797;51.662;6.748;2022-12-18T02:29:57;54.87;;;23.37;;
11481;SDS011;5797;51.662;6.748;2022-12-18T02:32:29;60.87;;;24.47;;
11481;SDS011;5797;51.662;6.748;2022-12-18T02:34:59;61.60;;;26.03;;
11481;SDS011;5797;51.662;6.748;2022-12-18T02:37:31;56.13;;;24.97;;
11481;SDS011;5797;51.662;6.748;2022-12-18T02:40:02;68.87;;;26.40;;
11481;SDS011;5797;51.662;6.748;2022-12-18T02:42:36;61.50;;;27.00;;
11481;SDS011;5797;51.662;6.748;2022-12-18T02:45:07;67.83;;;26.83;;
11481;SDS011;5797;51.662;6.748;2022-12-18T02:47:37;71.03;;;27.03;;
11481;SDS011;5797;51.662;6.748;2022-12-18T02:50:10;60.07;;;25.77;;
11481;SDS011;5797;51.662;6.748;2022-12-18T02:52:50;61.97;;;23.93;;
11481;SDS011;5797;51.662;6.748;2022-12-18T02:55:26;60.03;;;25.33;;
11481;SDS011;5797;51.662;6.748;2022-12-18T02:58:05;62.60;;;25.50;;
11481;SDS011;5797;51.662;6.748;2022-12-18T03:00:39;68.37;;;25.93;;
11481;SDS011;5797;51.662;6.748;2022-12-18T03:03:12;60.13;;;23.63;;
11481;SDS011;5797;51.662;6.748;2022-12-18T03:05:43;58.97;;;25.47;;
11481;SDS011;5797;51.662;6.748;2022-12-18T03:08:18;61.20;;;26.57;;
11481;SDS011;5797;51.662;6.748;2022-12-18T03:10:49;63.47;;;25.27;;
11481;SDS011;5797;51.662;6.748;2022-12-18T03:13:22;64.50;;;26.00;;
11481;SDS011;5797;51.662;6.748;2022-12-18T03:15:57;64.07;;;27.40;;
11481;SDS011;5797;51.662;6.748;2022-12-18T03:18:29;62.27;;;26.17;;
11481;SDS011;5797;51.662;6.748;2022-12-18T03:20:59;60.47;;;26.20;;
11481;SDS011;5797;51.662;6.748;2022-12-18T03:23:30;63.97;;;24.97;;
11481;SDS011;5797;51.662;6.748;2022-12-18T03:26:04;58.87;;;26.10;;
11481;SDS011;5797;51.662;6.748;2022-12-18T03:28:38;55.97;;;23.43;;
11481;SDS011;5797;51.662;6.748;2022-12-18T03:31:10;70.60;;;25.63;;
11481;SDS011;5797;51.662;6.748;2022-12-18T03:33:40;60.27;;;25.10;;
11481;SDS011;5797;51.662;6.748;2022-12-18T03:36:10;57.43;;;24.93;;
11481;SDS011;5797;51.662;6.748;2022-12-18T03:38:39;59.73;;;25.30;;
11481;SDS011;5797;51.662;6.748;2022-12-18T03:41:10;66.17;;;26.27;;
11481;SDS011;5797;51.662;6.748;2022-12-18T03:44:07;66.93;;;24.93;;
11481;SDS011;5797;51.662;6.748;2022-12-18T03:46:44;61.07;;;25.07;;
11481;SDS011;5797;51.662;6.748;2022-12-18T03:49:18;63.77;;;25.43;;
11481;SDS011;5797;51.662;6.748;2022-12-18T03:51:52;68.33;;;27.40;;
11481;SDS011;5797;51.662;6.748;2022-12-18T03:54:23;66.90;;;25.63;;
11481;SDS011;5797;51.662;6.748;2022-12-18T03:57:06;62.97;;;25.83;;
11481;SDS011;5797;51.662;6.748;2022-12-18T03:59:38;62.43;;;24.90;;
11481;SDS011;5797;51.662;6.748;2022-12-18T04:02:08;60.30;;;24.77;;
11481;SDS011;5797;51.662;6.748;2022-12-18T04:04:37;61.67;;;25.27;;
11481;SDS011;5797;51.662;6.748;2022-12-18T04:07:06;60.57;;;24.87;;
11481;SDS011;5797;51.662;6.748;2022-12-18T04:09:38;59.00;;;25.53;;
11481;SDS011;5797;51.662;6.748;2022-12-18T04:12:07;57.80;;;23.70;;
11481;SDS011;5797;51.662;6.748;2022-12-18T04:14:36;57.60;;;24.43;;
11481;SDS011;5797;51.662;6.748;2022-12-18T04:17:09;59.87;;;25.43;;
11481;SDS011;5797;51.662;6.748;2022-12-18T04:19:37;58.57;;;24.30;;
11481;SDS011;5797;51.662;6.748;2022-12-18T04:22:08;60.40;;;23.90;;
11481;SDS011;5797;51.662;6.748;2022-12-18T04:24:42;59.57;;;25.17;;
11481;SDS011;5797;51.662;6.748;2022-12-18T04:27:18;57.00;;;24.37;;
11481;SDS011;5797;51.662;6.748;2022-12-18T04:29:49;63.37;;;24.63;;
11481;SDS011;5797;51.662;6.748;2022-12-18T04:32:19;59.80;;;24.80;;
11481;SDS011;5797;51.662;6.748;2022-12-18T04:34:48;54.93;;;25.33;;
11481;SDS011;5797;51.662;6.748;2022-12-18T04:37:16;51.23;;;22.33;;
11481;SDS011;5797;51.662;6.748;2022-12-18T04:39:46;57.37;;;24.33;;
11481;SDS011;5797;51.662;6.748;2022-12-18T04:42:22;60.70;;;23.23;;
11481;SDS011;5797;51.662;6.748;2022-12-18T04:44:51;52.13;;;22.90;;
11481;SDS011;5797;51.662;6.748;2022-12-18T04:47:20;57.33;;;24.60;;
11481;SDS011;5797;51.662;6.748;2022-12-18T04:49:49;58.37;;;23.37;;
11481;SDS011;5797;51.662;6.748;2022-12-18T04:52:17;55.73;;;24.07;;
11481;SDS011;5797;51.662;6.748;2022-12-18T04:54:46;54.20;;;23.53;;
11481;SDS011;5797;51.662;6.748;2022-12-18T04:57:14;60.43;;;22.77;;
11481;SDS011;5797;51.662;6.748;2022-12-18T04:59:44;57.00;;;23.47;;
11481;SDS011;5797;51.662;6.748;2022-12-18T05:02:12;53.90;;;21.87;;
11481;SDS011;5797;51.662;6.748;2022-12-18T05:04:42;54.07;;;23.57;;
11481;SDS011;5797;51.662;6.748;2022-12-18T05:07:11;55.77;;;23.27;;
11481;SDS011;5797;51.662;6.748;2022-12-18T05:09:39;56.63;;;23.23;;
11481;SDS011;5797;51.662;6.748;2022-12-18T05:12:07;61.10;;;22.57;;
11481;SDS011;5797;51.662;6.748;2022-12-18T05:14:35;50.30;;;21.30;;
11481;SDS011;5797;51.662;6.748;2022-12-18T05:17:04;56.47;;;22.73;;
11481;SDS011;5797;51.662;6.748;2022-12-18T05:19:32;55.23;;;23.37;;
11481;SDS011;5797;51.662;6.748;2022-12-18T05:22:02;56.10;;;23.87;;
11481;SDS011;5797;51.662;6.748;2022-12-18T05:24:30;52.03;;;22.57;;
11481;SDS011;5797;51.662;6.748;2022-12-18T05:26:58;54.93;;;23.03;;
11481;SDS011;5797;51.662;6.748;2022-12-18T05:29:27;49.13;;;21.80;;
11481;SDS011;5797;51.662;6.748;2022-12-18T05:31:55;53.50;;;22.70;;
11481;SDS011;5797;51.662;6.748;2022-12-18T05:34:23;48.90;;;22.60;;
11481;SDS011;5797;51.662;6.748;2022-12-18T05:36:51;47.23;;;20.97;;
11481;SDS011;5797;51.662;6.748;2022-12-18T05:39:21;55.90;;;23.57;;
11481;SDS011;5797;51.662;6.748;2022-12-18T05:41:49;51.77;;;22.63;;
11481;SDS011;5797;51.662;6.748;2022-12-18T05:44:18;54.27;;;21.70;;
11481;SDS011;5797;51.662;6.748;2022-12-18T05:46:46;43.50;;;20.93;;
11481;SDS011;5797;51.662;6.748;2022-12-18T05:49:14;49.00;;;21.93;;
11481;SDS011;5797;51.662;6.748;2022-12-18T05:51:43;48.70;;;21.67;;
11481;SDS011;5797;51.662;6.748;2022-12-18T05:54:11;46.23;;;22.30;;
11481;SDS011;5797;51.662;6.748;2022-12-18T05:56:41;50.07;;;21.50;;
11481;SDS011;5797;51.662;6.748;2022-12-18T05:59:14;50.13;;;19.83;;
11481;SDS011;5797;51.662;6.748;2022-12-18T06:01:42;51.83;;;20.90;;
11481;SDS011;5797;51.662;6.748;2022-12-18T06:04:11;48.97;;;21.90;;
11481;SDS011;5797;51.662;6.748;2022-12-18T06:06:39;53.07;;;22.13;;
11481;SDS011;5797;51.662;6.748;2022-12-18T06:09:08;49.30;;;21.63;;
11481;SDS011;5797;51.662;6.748;2022-12-18T06:11:36;52.43;;;21.77;;
11481;SDS011;5797;51.662;6.748;2022-12-18T06:14:07;53.23;;;21.83;;
11481;SDS011;5797;51.662;6.748;2022-12-18T06:16:36;55.97;;;22.57;;
11481;SDS011;5797;51.662;6.748;2022-12-18T06:19:05;51.23;;;22.30;;
11481;SDS011;5797;51.662;6.748;2022-12-18T06:21:33;46.53;;;20.23;;
11481;SDS011;5797;51.662;6.748;2022-12-18T06:24:02;50.70;;;21.20;;
11481;SDS011;5797;51.662;6.748;2022-12-18T06:26:30;49.53;;;19.60;;
11481;SDS011;5797;51.662;6.748;2022-12-18T06:28:58;49.97;;;20.27;;
11481;SDS011;5797;51.662;6.748;2022-12-18T06:31:29;47.30;;;19.50;;
11481;SDS011;5797;51.662;6.748;2022-12-18T06:33:57;43.57;;;19.87;;
11481;SDS011;5797;51.662;6.748;2022-12-18T06:36:25;44.27;;;20.00;;
11481;SDS011;5797;51.662;6.748;2022-12-18T06:38:54;41.03;;;19.20;;
11481;SDS011;5797;51.662;6.748;2022-12-18T06:41:22;41.23;;;20.50;;
11481;SDS011;5797;51.662;6.748;2022-12-18T06:43:50;50.43;;;19.73;;
11481;SDS011;5797;51.662;6.748;2022-12-18T06:46:24;43.63;;;19.83;;
11481;SDS011;5797;51.662;6.748;2022-12-18T06:48:53;48.07;;;19.87;;
11481;SDS011;5797;51.662;6.748;2022-12-18T06:51:22;45.40;;;20.87;;
11481;SDS011;5797;51.662;6.748;2022-12-18T06:53:51;41.27;;;18.53;;
11481;SDS011;5797;51.662;6.748;2022-12-18T06:56:19;38.07;;;18.83;;
11481;SDS011;5797;51.662;6.748;2022-12-18T06:58:48;47.47;;;19.60;;
11481;SDS011;5797;51.662;6.748;2022-12-18T07:01:16;45.20;;;20.10;;
11481;SDS011;5797;51.662;6.748;2022-12-18T07:03:45;41.60;;;19.67;;
11481;SDS011;5797;51.662;6.748;2022-12-18T07:06:15;41.50;;;18.80;;
11481;SDS011;5797;51.662;6.748;2022-12-18T07:08:44;44.33;;;21.10;;
11481;SDS011;5797;51.662;6.748;2022-12-18T07:11:13;41.93;;;19.40;;
11481;SDS011;5797;51.662;6.748;2022-12-18T07:13:41;41.20;;;20.70;;
11481;SDS011;5797;51.662;6.748;2022-12-18T07:16:11;43.67;;;19.90;;
11481;SDS011;5797;51.662;6.748;2022-12-18T07:18:46;48.27;;;21.20;;
11481;SDS011;5797;51.662;6.748;2022-12-18T07:21:18;40.47;;;18.80;;
11481;SDS011;5797;51.662;6.748;2022-12-18T07:23:47;42.83;;;20.40;;
11481;SDS011;5797;51.662;6.748;2022-12-18T07:26:16;43.00;;;19.10;;
11481;SDS011;5797;51.662;6.748;2022-12-18T07:28:45;43.10;;;19.67;;
11481;SDS011;5797;51.662;6.748;2022-12-18T07:31:14;41.50;;;18.67;;
11481;SDS011;5797;51.662;6.748;2022-12-18T07:33:45;41.50;;;19.03;;
11481;SDS011;5797;51.662;6.748;2022-12-18T07:36:13;40.97;;;19.57;;
11481;SDS011;5797;51.662;6.748;2022-12-18T07:38:46;44.00;;;17.87;;
11481;SDS011;5797;51.662;6.748;2022-12-18T07:41:14;40.67;;;17.93;;
11481;SDS011;5797;51.662;6.748;2022-12-18T07:43:43;44.30;;;19.13;;
11481;SDS011;5797;51.662;6.748;2022-12-18T07:46:11;39.73;;;18.57;;
11481;SDS011;5797;51.662;6.748;2022-12-18T07:48:41;44.73;;;19.60;;
11481;SDS011;5797;51.662;6.748;2022-12-18T07:51:11;38.63;;;18.90;;
11481;SDS011;5797;51.662;6.748;2022-12-18T07:53:39;39.83;;;19.03;;
11481;SDS011;5797;51.662;6.748;2022-12-18T07:56:10;38.33;;;17.97;;
11481;SDS011;5797;51.662;6.748;2022-12-18T07:58:57;40.13;;;18.03;;
11481;SDS011;5797;51.662;6.748;2022-12-18T08:01:30;42.23;;;18.23;;
11481;SDS011;5797;51.662;6.748;2022-12-18T08:03:59;39.57;;;18.53;;
11481;SDS011;5797;51.662;6.748;2022-12-18T08:06:27;38.97;;;18.67;;
11481;SDS011;5797;51.662;6.748;2022-12-18T08:08:56;41.03;;;19.47;;
11481;SDS011;5797;51.662;6.748;2022-12-18T08:11:29;38.87;;;19.70;;
11481;SDS011;5797;51.662;6.748;2022-12-18T08:13:58;43.10;;;20.63;;
11481;SDS011;5797;51.662;6.748;2022-12-18T08:16:26;39.80;;;18.97;;
11481;SDS011;5797;51.662;6.748;2022-12-18T08:18:55;37.60;;;17.83;;
11481;SDS011;5797;51.662;6.748;2022-12-18T08:21:28;35.27;;;17.27;;
11481;SDS011;5797;51.662;6.748;2022-12-18T08:23:58;40.93;;;17.53;;
11481;SDS011;5797;51.662;6.748;2022-12-18T08:26:29;43.10;;;18.97;;
11481;SDS011;5797;51.662;6.748;2022-12-18T08:28:59;37.63;;;17.70;;
11481;SDS011;5797;51.662;6.748;2022-12-18T08:31:28;42.07;;;19.37;;
11481;SDS011;5797;51.662;6.748;2022-12-18T08:33:58;35.90;;;17.43;;
11481;SDS011;5797;51.662;6.748;2022-12-18T08:36:27;37.03;;;19.20;;
11481;SDS011;5797;51.662;6.748;2022-12-18T08:38:56;37.53;;;17.83;;
11481;SDS011;5797;51.662;6.748;2022-12-18T08:41:24;35.83;;;16.93;;
11481;SDS011;5797;51.662;6.748;2022-12-18T08:44:02;41.57;;;17.70;;
11481;SDS011;5797;51.662;6.748;2022-12-18T08:47:05;36.97;;;18.67;;
11481;SDS011;5797;51.662;6.748;2022-12-18T08:49:35;36.57;;;17.63;;
11481;SDS011;5797;51.662;6.748;2022-12-18T08:52:04;38.27;;;16.37;;
11481;SDS011;5797;51.662;6.748;2022-12-18T08:54:37;32.83;;;16.87;;
11481;SDS011;5797;51.662;6.748;2022-12-18T08:57:10;31.90;;;15.97;;
11481;SDS011;5797;51.662;6.748;2022-12-18T08:59:57;36.27;;;17.43;;
11481;SDS011;5797;51.662;6.748;2022-12-18T09:02:26;34.93;;;17.20;;
11481;SDS011;5797;51.662;6.748;2022-12-18T09:04:54;32.60;;;16.40;;
11481;SDS011;5797;51.662;6.748;2022-12-18T09:07:23;37.07;;;16.37;;
11481;SDS011;5797;51.662;6.748;2022-12-18T09:09:52;32.20;;;16.27;;
11481;SDS011;5797;51.662;6.748;2022-12-18T09:12:20;31.77;;;15.17;;
11481;SDS011;5797;51.662;6.748;2022-12-18T09:14:48;33.20;;;16.63;;
11481;SDS011;5797;51.662;6.748;2022-12-18T09:17:18;33.73;;;16.10;;
11481;SDS011;5797;51.662;6.748;2022-12-18T09:19:46;41.90;;;18.00;;
11481;SDS011;5797;51.662;6.748;2022-12-18T09:22:15;35.53;;;16.80;;
11481;SDS011;5797;51.662;6.748;2022-12-18T09:24:43;31.03;;;15.40;;
11481;SDS011;5797;51.662;6.748;2022-12-18T09:27:12;33.47;;;15.07;;
11481;SDS011;5797;51.662;6.748;2022-12-18T09:29:40;33.77;;;16.00;;
11481;SDS011;5797;51.662;6.748;2022-12-18T09:32:08;30.40;;;15.90;;
11481;SDS011;5797;51.662;6.748;2022-12-18T09:34:38;34.73;;;15.93;;
11481;SDS011;5797;51.662;6.748;2022-12-18T09:37:06;35.57;;;15.10;;
11481;SDS011;5797;51.662;6.748;2022-12-18T09:39:35;32.57;;;14.93;;
11481;SDS011;5797;51.662;6.748;2022-12-18T09:42:03;34.20;;;14.87;;
11481;SDS011;5797;51.662;6.748;2022-12-18T09:44:34;28.80;;;14.70;;
11481;SDS011;5797;51.662;6.748;2022-12-18T09:47:11;27.67;;;14.53;;
11481;SDS011;5797;51.662;6.748;2022-12-18T09:49:44;35.40;;;14.70;;
11481;SDS011;5797;51.662;6.748;2022-12-18T09:52:15;30.63;;;15.40;;
11481;SDS011;5797;51.662;6.748;2022-12-18T09:54:46;36.30;;;15.87;;
11481;SDS011;5797;51.662;6.748;2022-12-18T09:57:18;29.53;;;14.77;;
11481;SDS011;5797;51.662;6.748;2022-12-18T09:59:50;34.30;;;17.10;;
11481;SDS011;5797;51.662;6.748;2022-12-18T10:02:21;31.43;;;16.30;;
11481;SDS011;5797;51.662;6.748;2022-12-18T10:04:58;37.90;;;18.07;;
11481;SDS011;5797;51.662;6.748;2022-12-18T10:07:34;29.07;;;16.03;;
11481;SDS011;5797;51.662;6.748;2022-12-18T10:10:10;30.73;;;15.90;;
11481;SDS011;5797;51.662;6.748;2022-12-18T10:12:45;24.90;;;14.50;;
11481;SDS011;5797;51.662;6.748;2022-12-18T10:15:18;31.57;;;15.60;;
11481;SDS011;5797;51.662;6.748;2022-12-18T10:17:50;29.60;;;15.93;;
11481;SDS011;5797;51.662;6.748;2022-12-18T10:20:27;33.27;;;16.83;;
11481;SDS011;5797;51.662;6.748;2022-12-18T10:23:00;30.73;;;15.57;;
11481;SDS011;5797;51.662;6.748;2022-12-18T10:25:32;37.73;;;16.13;;
11481;SDS011;5797;51.662;6.748;2022-12-18T10:28:07;34.17;;;15.90;;
11481;SDS011;5797;51.662;6.748;2022-12-18T10:30:38;32.97;;;16.13;;
11481;SDS011;5797;51.662;6.748;2022-12-18T10:33:08;28.23;;;13.80;;
11481;SDS011;5797;51.662;6.748;2022-12-18T10:35:42;27.33;;;14.47;;
11481;SDS011;5797;51.662;6.748;2022-12-18T10:38:21;31.20;;;14.90;;
11481;SDS011;5797;51.662;6.748;2022-12-18T10:40:53;28.40;;;15.50;;
11481;SDS011;5797;51.662;6.748;2022-12-18T10:43:24;32.87;;;15.27;;
11481;SDS011;5797;51.662;6.748;2022-12-18T10:46:01;33.73;;;14.53;;
11481;SDS011;5797;51.662;6.748;2022-12-18T10:48:39;25.47;;;13.90;;
11481;SDS011;5797;51.662;6.748;2022-12-18T10:51:20;29.43;;;15.07;;
11481;SDS011;5797;51.662;6.748;2022-12-18T10:53:51;33.37;;;15.03;;
11481;SDS011;5797;51.662;6.748;2022-12-18T10:56:22;29.73;;;15.20;;
11481;SDS011;5797;51.662;6.748;2022-12-18T10:58:55;32.87;;;15.27;;
11481;SDS011;5797;51.662;6.748;2022-12-18T11:01:25;24.43;;;14.20;;
11481;SDS011;5797;51.662;6.748;2022-12-18T11:03:59;29.50;;;15.53;;
11481;SDS011;5797;51.662;6.748;2022-12-18T11:06:33;28.60;;;15.60;;
11481;SDS011;5797;51.662;6.748;2022-12-18T11:09:03;29.63;;;15.43;;
11481;SDS011;5797;51.662;6.748;2022-12-18T11:11:38;28.10;;;15.77;;
11481;SDS011;5797;51.662;6.748;2022-12-18T11:14:12;27.97;;;14.93;;
11481;SDS011;5797;51.662;6.748;2022-12-18T11:16:44;26.93;;;14.33;;
11481;SDS011;5797;51.662;6.748;2022-12-18T11:19:35;27.33;;;13.67;;
11481;SDS011;5797;51.662;6.748;2022-12-18T11:22:17;24.07;;;14.43;;
11481;SDS011;5797;51.662;6.748;2022-12-18T11:24:52;26.20;;;13.63;;
11481;SDS011;5797;51.662;6.748;2022-12-18T11:27:46;28.70;;;13.30;;
11481;SDS011;5797;51.662;6.748;2022-12-18T11:30:20;27.00;;;14.20;;
11481;SDS011;5797;51.662;6.748;2022-12-18T11:32:50;23.27;;;13.33;;
11481;SDS011;5797;51.662;6.748;2022-12-18T11:35:32;24.03;;;13.03;;
11481;SDS011;5797;51.662;6.748;2022-12-18T11:38:06;28.07;;;12.87;;
11481;SDS011;5797;51.662;6.748;2022-12-18T11:40:42;24.50;;;12.77;;
11481;SDS011;5797;51.662;6.748;2022-12-18T11:43:14;21.70;;;12.30;;
11481;SDS011;5797;51.662;6.748;2022-12-18T11:45:47;23.63;;;11.97;;
11481;SDS011;5797;51.662;6.748;2022-12-18T11:48:20;21.80;;;12.10;;
11481;SDS011;5797;51.662;6.748;2022-12-18T11:50:52;23.53;;;12.33;;
11481;SDS011;5797;51.662;6.748;2022-12-18T11:53:23;18.83;;;11.27;;
11481;SDS011;5797;51.662;6.748;2022-12-18T11:55:56;25.00;;;11.60;;
11481;SDS011;5797;51.662;6.748;2022-12-18T11:58:54;25.30;;;12.20;;
11481;SDS011;5797;51.662;6.748;2022-12-18T12:01:32;24.83;;;11.43;;
11481;SDS011;5797;51.662;6.748;2022-12-18T12:07:21;24.70;;;11.50;;
11481;SDS011;5797;51.662;6.748;2022-12-18T12:10:01;24.63;;;12.20;;
11481;SDS011;5797;51.662;6.748;2022-12-18T12:12:39;21.73;;;11.17;;
11481;SDS011;5797;51.662;6.748;2022-12-18T12:15:20;21.70;;;12.40;;
11481;SDS011;5797;51.662;6.748;2022-12-18T12:17:55;24.53;;;11.97;;
11481;SDS011;5797;51.662;6.748;2022-12-18T12:20:28;19.60;;;10.30;;
11481;SDS011;5797;51.662;6.748;2022-12-18T12:23:03;22.77;;;11.43;;
11481;SDS011;5797;51.662;6.748;2022-12-18T12:25:37;21.87;;;11.80;;
11481;SDS011;5797;51.662;6.748;2022-12-18T12:28:14;25.47;;;12.47;;
11481;SDS011;5797;51.662;6.748;2022-12-18T12:30:50;23.97;;;12.27;;
11481;SDS011;5797;51.662;6.748;2022-12-18T12:33:26;20.53;;;11.53;;
11481;SDS011;5797;51.662;6.748;2022-12-18T12:36:02;23.00;;;12.10;;
11481;SDS011;5797;51.662;6.748;2022-12-18T12:38:36;21.73;;;11.03;;
11481;SDS011;5797;51.662;6.748;2022-12-18T12:41:16;21.27;;;10.77;;
11481;SDS011;5797;51.662;6.748;2022-12-18T12:44:06;27.90;;;12.50;;
11481;SDS011;5797;51.662;6.748;2022-12-18T12:46:37;26.00;;;13.00;;
11481;SDS011;5797;51.662;6.748;2022-12-18T12:49:09;24.50;;;12.73;;
11481;SDS011;5797;51.662;6.748;2022-12-18T12:51:40;19.33;;;11.60;;
11481;SDS011;5797;51.662;6.748;2022-12-18T12:54:13;22.93;;;12.30;;
11481;SDS011;5797;51.662;6.748;2022-12-18T12:56:50;21.13;;;11.80;;
11481;SDS011;5797;51.662;6.748;2022-12-18T12:59:22;18.33;;;12.27;;
11481;SDS011;5797;51.662;6.748;2022-12-18T13:01:58;19.50;;;11.63;;
11481;SDS011;5797;51.662;6.748;2022-12-18T13:04:30;21.63;;;12.13;;
11481;SDS011;5797;51.662;6.748;2022-12-18T13:07:05;22.33;;;11.03;;
11481;SDS011;5797;51.662;6.748;2022-12-18T13:10:10;21.17;;;12.50;;
11481;SDS011;5797;51.662;6.748;2022-12-18T13:12:52;21.53;;;12.07;;
11481;SDS011;5797;51.662;6.748;2022-12-18T13:15:32;23.70;;;11.43;;
11481;SDS011;5797;51.662;6.748;2022-12-18T13:18:05;29.30;;;15.70;;
11481;SDS011;5797;51.662;6.748;2022-12-18T13:20:40;25.07;;;14.03;;
11481;SDS011;5797;51.662;6.748;2022-12-18T13:23:19;22.47;;;13.13;;
11481;SDS011;5797;51.662;6.748;2022-12-18T13:25:55;19.87;;;10.90;;
11481;SDS011;5797;51.662;6.748;2022-12-18T13:34:36;19.43;;;10.50;;
11481;SDS011;5797;51.662;6.748;2022-12-18T13:43:23;19.63;;;10.30;;
11481;SDS011;5797;51.662;6.748;2022-12-18T13:46:05;20.07;;;10.53;;
11481;SDS011;5797;51.662;6.748;2022-12-18T13:48:50;22.33;;;11.73;;
11481;SDS011;5797;51.662;6.748;2022-12-18T13:51:20;22.13;;;10.47;;
11481;SDS011;5797;51.662;6.748;2022-12-18T13:53:50;19.00;;;10.23;;
11481;SDS011;5797;51.662;6.748;2022-12-18T13:56:22;17.27;;;10.13;;
11481;SDS011;5797;51.662;6.748;2022-12-18T13:59:05;18.20;;;10.07;;
11481;SDS011;5797;51.662;6.748;2022-12-18T14:01:42;15.73;;;9.93;;
11481;SDS011;5797;51.662;6.748;2022-12-18T14:04:20;23.40;;;10.80;;
11481;SDS011;5797;51.662;6.748;2022-12-18T14:06:54;19.47;;;11.37;;
11481;SDS011;5797;51.662;6.748;2022-12-18T14:09:25;21.60;;;10.27;;
11481;SDS011;5797;51.662;6.748;2022-12-18T14:11:55;21.13;;;11.13;;
11481;SDS011;5797;51.662;6.748;2022-12-18T14:14:45;22.70;;;11.37;;
11481;SDS011;5797;51.662;6.748;2022-12-18T14:17:17;30.53;;;13.70;;
11481;SDS011;5797;51.662;6.748;2022-12-18T14:19:46;21.53;;;11.27;;
11481;SDS011;5797;51.662;6.748;2022-12-18T14:22:17;21.70;;;11.83;;
11481;SDS011;5797;51.662;6.748;2022-12-18T14:24:47;24.83;;;11.87;;
11481;SDS011;5797;51.662;6.748;2022-12-18T14:27:43;16.43;;;10.13;;
11481;SDS011;5797;51.662;6.748;2022-12-18T14:30:25;18.63;;;10.30;;
11481;SDS011;5797;51.662;6.748;2022-12-18T14:33:08;19.90;;;11.10;;
11481;SDS011;5797;51.662;6.748;2022-12-18T14:35:41;17.03;;;10.03;;
11481;SDS011;5797;51.662;6.748;2022-12-18T14:38:11;22.60;;;11.13;;
11481;SDS011;5797;51.662;6.748;2022-12-18T14:40:51;19.90;;;10.67;;
11481;SDS011;5797;51.662;6.748;2022-12-18T14:43:21;18.60;;;10.60;;
11481;SDS011;5797;51.662;6.748;2022-12-18T14:45:49;21.67;;;12.00;;
11481;SDS011;5797;51.662;6.748;2022-12-18T14:48:20;25.20;;;11.77;;
11481;SDS011;5797;51.662;6.748;2022-12-18T14:50:57;20.97;;;11.17;;
11481;SDS011;5797;51.662;6.748;2022-12-18T14:53:37;20.50;;;10.23;;
11481;SDS011;5797;51.662;6.748;2022-12-18T14:56:14;18.77;;;10.70;;
11481;SDS011;5797;51.662;6.748;2022-12-18T14:58:48;21.93;;;11.17;;
11481;SDS011;5797;51.662;6.748;2022-12-18T15:01:21;21.27;;;10.47;;
11481;SDS011;5797;51.662;6.748;2022-12-18T15:03:53;19.03;;;10.70;;
11481;SDS011;5797;51.662;6.748;2022-12-18T15:06:24;17.27;;;11.17;;
11481;SDS011;5797;51.662;6.748;2022-12-18T15:08:56;21.97;;;11.80;;
11481;SDS011;5797;51.662;6.748;2022-12-18T15:11:29;21.77;;;11.40;;
11481;SDS011;5797;51.662;6.748;2022-12-18T15:14:21;22.80;;;12.37;;
11481;SDS011;5797;51.662;6.748;2022-12-18T15:16:52;19.80;;;13.10;;
11481;SDS011;5797;51.662;6.748;2022-12-18T15:19:32;23.93;;;12.80;;